Time;durP1;ratioP1;P1;durP2;ratioP2;P2;SDS_P1;SDS_P2;PMS_P1;PMS_P2;Temp;Humidity;BMP_temperature;BMP_pressure;BME280_temperature;BME280_humidity;BME280_pressure;Samples;Min_cycle;Max_cycle;Signal;HPM_P1;HPM_P2
2023/09/29 00:00:31;;;;;;;17.80;6.70;;;14.70;99.90;;;;;;5086596;28;20139;-35
2023/09/29 00:02:57;;;;;;;16.20;7.05;;;14.70;99.90;;;;;;5078995;28;20044;-36
2023/09/29 00:05:23;;;;;;;16.90;6.53;;;14.70;99.90;;;;;;5085131;28;20032;-35
2023/09/29 00:07:52;;;;;;;15.27;6.90;;;14.60;99.90;;;;;;5079062;28;20107;-35
2023/09/29 00:10:20;;;;;;;16.10;7.38;;;14.60;99.90;;;;;;5084519;28;20106;-35
2023/09/29 00:12:48;;;;;;;17.70;6.78;;;14.60;99.90;;;;;;5085525;28;20044;-35
2023/09/29 00:15:15;;;;;;;12.88;7.03;;;14.60;99.90;;;;;;5085609;28;20066;-38
2023/09/29 00:17:41;;;;;;;17.00;7.70;;;14.60;99.90;;;;;;5083425;28;20040;-35
2023/09/29 00:20:26;;;;;;;16.00;6.88;;;14.60;99.90;;;;;;5082975;28;20032;-36
2023/09/29 00:22:52;;;;;;;12.70;7.40;;;14.60;99.90;;;;;;5085073;28;20040;-35
2023/09/29 00:25:19;;;;;;;14.45;7.15;;;14.60;99.90;;;;;;5087300;28;20108;-38
2023/09/29 00:27:44;;;;;;;15.05;7.60;;;14.60;99.90;;;;;;5084376;28;20047;-35
2023/09/29 00:30:12;;;;;;;17.95;7.53;;;14.60;99.90;;;;;;5077417;28;20078;-35
2023/09/29 00:32:46;;;;;;;13.68;7.95;;;14.70;99.90;;;;;;5085511;28;20044;-36
2023/09/29 00:35:34;;;;;;;16.38;8.85;;;14.70;99.90;;;;;;5080041;28;20438;-35
2023/09/29 00:38:00;;;;;;;22.45;9.85;;;14.80;99.90;;;;;;5087047;28;20509;-35
2023/09/29 00:40:28;;;;;;;14.88;9.00;;;14.80;99.90;;;;;;5086696;28;20059;-35
2023/09/29 00:42:54;;;;;;;16.95;9.20;;;14.90;99.90;;;;;;5084108;28;20097;-37
2023/09/29 00:45:23;;;;;;;17.85;9.57;;;14.90;99.90;;;;;;5078883;28;20123;-36
2023/09/29 00:48:09;;;;;;;20.02;9.68;;;15.10;99.90;;;;;;5074145;28;20376;-33
2023/09/29 00:50:36;;;;;;;14.13;8.93;;;15.10;99.90;;;;;;5084756;28;20127;-36
2023/09/29 00:53:09;;;;;;;15.75;9.93;;;15.10;99.90;;;;;;5087491;28;20068;-31
2023/09/29 00:55:37;;;;;;;15.20;9.05;;;15.10;99.90;;;;;;5086534;28;20519;-33
2023/09/29 00:58:04;;;;;;;20.27;11.25;;;15.20;99.90;;;;;;5078728;28;20042;-33
2023/09/29 01:00:32;;;;;;;20.05;10.25;;;15.20;99.90;;;;;;5077079;28;20111;-34
2023/09/29 01:03:06;;;;;;;15.25;9.65;;;15.30;99.90;;;;;;5084994;28;20533;-34
2023/09/29 01:05:39;;;;;;;20.25;10.57;;;15.20;99.90;;;;;;5088940;28;20040;-33
2023/09/29 01:08:10;;;;;;;19.10;9.98;;;15.30;99.90;;;;;;5092388;28;20040;-33
2023/09/29 01:10:37;;;;;;;18.60;10.23;;;15.20;99.90;;;;;;5084439;28;20351;-32
2023/09/29 01:13:03;;;;;;;18.55;10.25;;;15.30;99.90;;;;;;5085094;28;20032;-35
2023/09/29 01:15:29;;;;;;;16.75;10.18;;;15.30;99.90;;;;;;5083980;28;20403;-34
2023/09/29 01:17:54;;;;;;;17.38;10.27;;;15.30;99.90;;;;;;5082526;28;20057;-32
2023/09/29 01:20:29;;;;;;;19.92;10.63;;;15.40;99.90;;;;;;5078896;28;20048;-35
2023/09/29 01:23:06;;;;;;;20.35;10.70;;;15.40;99.90;;;;;;5083720;28;20495;-35
2023/09/29 01:25:32;;;;;;;16.95;10.40;;;15.40;99.90;;;;;;5071050;28;20044;-36
2023/09/29 01:27:59;;;;;;;19.73;10.50;;;15.40;99.90;;;;;;5083256;28;20063;-34
2023/09/29 01:30:27;;;;;;;18.92;11.23;;;15.40;99.90;;;;;;5076130;28;20089;-34
2023/09/29 01:32:56;;;;;;;23.80;10.65;;;15.50;99.90;;;;;;5083172;28;20096;-31
2023/09/29 01:35:23;;;;;;;14.43;10.18;;;15.50;99.90;;;;;;5082528;28;20039;-36
2023/09/29 01:37:53;;;;;;;17.08;10.13;;;15.50;99.90;;;;;;5080517;28;20040;-34
2023/09/29 01:40:23;;;;;;;21.48;10.55;;;15.50;99.90;;;;;;5083626;28;20036;-35
2023/09/29 01:42:51;;;;;;;15.43;10.18;;;15.60;99.90;;;;;;5088826;28;20122;-35
2023/09/29 01:45:18;;;;;;;18.58;10.52;;;15.60;99.90;;;;;;5080931;28;20040;-32
2023/09/29 01:47:47;;;;;;;15.00;10.07;;;15.60;99.90;;;;;;5075516;28;20032;-36
2023/09/29 01:50:15;;;;;;;16.48;9.95;;;15.60;99.90;;;;;;5084407;28;20040;-34
2023/09/29 01:52:41;;;;;;;17.38;10.93;;;15.60;99.90;;;;;;5082160;28;20074;-34
2023/09/29 01:55:14;;;;;;;16.58;10.13;;;15.60;99.90;;;;;;5085592;28;20410;-34
2023/09/29 01:57:42;;;;;;;14.98;10.23;;;15.70;99.90;;;;;;5086248;28;20040;-34
2023/09/29 02:00:41;;;;;;;19.75;11.13;;;15.70;99.90;;;;;;5082280;28;20127;-34
2023/09/29 02:03:01;;;;;;;18.17;10.65;;;15.70;99.90;;;;;;5085899;28;20326;-35
2023/09/29 02:05:26;;;;;;;21.00;10.35;;;15.70;99.90;;;;;;5083145;28;20051;-35
2023/09/29 02:07:52;;;;;;;19.95;11.23;;;15.70;99.90;;;;;;5084607;28;20041;-34
2023/09/29 02:10:21;;;;;;;18.52;10.63;;;15.80;99.90;;;;;;5074494;28;20516;-34
2023/09/29 02:12:57;;;;;;;17.23;10.55;;;15.80;99.90;;;;;;5088721;28;20044;-35
2023/09/29 02:15:34;;;;;;;18.35;10.40;;;15.80;99.90;;;;;;5087297;28;20062;-33
2023/09/29 02:18:04;;;;;;;21.48;9.77;;;15.80;99.90;;;;;;5086549;28;20048;-34
2023/09/29 02:20:30;;;;;;;15.40;10.93;;;15.90;99.90;;;;;;5077875;28;20040;-34
2023/09/29 02:22:56;;;;;;;21.05;10.88;;;15.80;99.90;;;;;;5108476;22;20085;-90
2023/09/29 02:25:26;;;;;;;15.95;9.88;;;15.90;99.90;;;;;;5083757;28;20082;-90
2023/09/29 02:27:56;;;;;;;18.67;11.00;;;15.90;99.90;;;;;;5083444;28;20062;-88
2023/09/29 02:30:23;;;;;;;13.45;9.95;;;15.90;99.90;;;;;;5103931;28;20024;-88
2023/09/29 02:32:52;;;;;;;15.18;9.90;;;15.90;99.90;;;;;;5100645;28;20040;-87
2023/09/29 02:35:18;;;;;;;15.35;9.85;;;15.90;99.90;;;;;;5118141;28;20042;-89
2023/09/29 02:37:45;;;;;;;15.98;10.15;;;15.90;99.90;;;;;;5104476;28;20040;-90
2023/09/29 02:40:11;;;;;;;15.45;10.18;;;15.90;99.90;;;;;;5089448;28;20092;-90
2023/09/29 02:42:37;;;;;;;20.77;10.70;;;15.90;99.90;;;;;;5104069;28;20074;-89
2023/09/29 02:45:03;;;;;;;14.52;10.23;;;15.90;99.90;;;;;;5080917;28;20511;-89
2023/09/29 02:47:30;;;;;;;14.32;10.23;;;15.90;99.90;;;;;;5072419;28;20043;-90
2023/09/29 02:49:57;;;;;;;16.00;10.65;;;15.90;99.90;;;;;;5088585;28;20036;-90
2023/09/29 02:52:22;;;;;;;17.92;10.88;;;15.90;99.90;;;;;;5073399;28;20059;-90
2023/09/29 02:54:49;;;;;;;17.90;10.32;;;15.90;99.90;;;;;;5077592;28;20132;-89
2023/09/29 02:57:18;;;;;;;20.60;10.50;;;15.90;99.90;;;;;;5087646;28;20040;-90
2023/09/29 02:59:44;;;;;;;18.30;10.35;;;15.90;99.90;;;;;;5071018;28;20031;-90
2023/09/29 03:02:10;;;;;;;15.63;10.88;;;15.90;99.90;;;;;;5072725;28;20528;-90
2023/09/29 03:04:39;;;;;;;17.70;10.60;;;15.90;99.90;;;;;;5090210;28;20040;-90
2023/09/29 03:07:04;;;;;;;14.88;10.30;;;15.90;99.90;;;;;;5079945;28;20391;-89
2023/09/29 03:09:31;;;;;;;15.63;10.25;;;16.00;99.90;;;;;;5078686;28;20028;-89
2023/09/29 03:11:58;;;;;;;18.17;11.27;;;15.90;99.90;;;;;;5079895;28;20039;-89
2023/09/29 03:14:24;;;;;;;20.85;11.88;;;16.00;99.90;;;;;;5076146;28;20032;-90
2023/09/29 03:16:50;;;;;;;15.05;9.63;;;15.90;99.90;;;;;;5071093;28;20088;-89
2023/09/29 03:19:15;;;;;;;18.27;10.73;;;15.90;99.90;;;;;;5075911;28;20032;-90
2023/09/29 03:21:42;;;;;;;15.38;10.32;;;16.00;99.90;;;;;;5070208;28;20036;-89
2023/09/29 03:24:08;;;;;;;18.05;10.15;;;16.00;99.90;;;;;;5077873;28;20182;-89
2023/09/29 03:26:34;;;;;;;13.88;10.88;;;16.00;99.90;;;;;;5071750;28;20036;-90
2023/09/29 03:28:59;;;;;;;18.30;10.23;;;16.00;99.90;;;;;;5092316;28;20089;-89
2023/09/29 03:31:26;;;;;;;16.67;10.05;;;16.00;99.90;;;;;;5080102;28;20498;-89
2023/09/29 03:33:52;;;;;;;16.38;11.27;;;16.00;99.90;;;;;;5077607;28;20539;-89
2023/09/29 03:36:22;;;;;;;18.08;11.77;;;16.00;99.90;;;;;;5067487;28;20044;-89
2023/09/29 03:38:48;;;;;;;18.23;11.93;;;16.00;99.90;;;;;;5073706;28;20177;-89
2023/09/29 03:41:13;;;;;;;22.80;12.93;;;16.00;99.90;;;;;;5074978;28;20069;-89
2023/09/29 03:43:39;;;;;;;20.02;12.30;;;16.00;99.90;;;;;;5085491;28;20043;-88
2023/09/29 03:46:06;;;;;;;20.50;13.70;;;16.00;99.90;;;;;;5078726;28;20038;-89
2023/09/29 03:48:32;;;;;;;20.92;13.75;;;16.00;99.90;;;;;;5086399;28;20040;-89
2023/09/29 03:50:57;;;;;;;18.35;12.55;;;16.10;99.90;;;;;;5072586;28;20081;-88
2023/09/29 03:53:28;;;;;;;21.15;14.02;;;16.10;99.90;;;;;;5074409;28;20486;-88
2023/09/29 03:55:56;;;;;;;23.02;14.07;;;16.10;99.90;;;;;;5089056;28;20494;-89
2023/09/29 03:58:24;;;;;;;24.75;14.32;;;16.10;99.90;;;;;;5076074;28;20068;-89
2023/09/29 04:00:50;;;;;;;22.80;14.35;;;16.10;99.90;;;;;;5086932;28;20047;-89
2023/09/29 04:03:16;;;;;;;19.63;13.88;;;16.10;99.90;;;;;;5087254;28;20077;-89
2023/09/29 04:05:41;;;;;;;18.73;13.18;;;16.20;99.90;;;;;;5069355;28;20089;-91
2023/09/29 04:08:07;;;;;;;21.00;13.18;;;16.10;99.90;;;;;;5089544;28;20035;-89
2023/09/29 04:10:33;;;;;;;19.27;14.57;;;16.20;99.90;;;;;;5072904;28;20036;-89
2023/09/29 04:12:58;;;;;;;20.52;14.05;;;16.10;99.90;;;;;;5092101;28;20044;-90
2023/09/29 04:15:25;;;;;;;19.42;14.23;;;16.20;99.90;;;;;;5074625;28;20035;-90
2023/09/29 04:17:51;;;;;;;18.75;13.88;;;16.20;99.90;;;;;;5068330;28;20048;-89
2023/09/29 04:20:17;;;;;;;20.58;12.98;;;16.20;99.90;;;;;;5068471;28;20506;-90
2023/09/29 04:22:43;;;;;;;17.67;12.60;;;16.20;99.90;;;;;;5087624;28;20040;-89
2023/09/29 04:25:10;;;;;;;15.77;12.32;;;16.30;99.90;;;;;;5091409;28;20404;-90
2023/09/29 04:27:36;;;;;;;17.38;12.60;;;16.30;99.90;;;;;;5071436;28;20398;-89
2023/09/29 04:30:05;;;;;;;16.20;12.40;;;16.40;99.90;;;;;;5091157;28;20028;-88
2023/09/29 04:32:31;;;;;;;15.95;11.20;;;16.40;99.90;;;;;;5090862;28;20043;-89
2023/09/29 04:34:56;;;;;;;15.88;10.63;;;16.40;99.90;;;;;;5077157;28;20115;-90
2023/09/29 04:37:22;;;;;;;15.98;12.07;;;16.50;99.90;;;;;;5071578;28;20075;-87
2023/09/29 04:39:47;;;;;;;14.77;11.50;;;16.50;99.90;;;;;;5077588;28;20051;-88
2023/09/29 04:42:14;;;;;;;15.85;11.10;;;16.50;99.90;;;;;;5079009;28;20115;-90
2023/09/29 04:44:40;;;;;;;14.73;11.30;;;16.50;99.90;;;;;;5085738;28;20107;-88
2023/09/29 04:47:06;;;;;;;14.68;11.35;;;16.60;99.90;;;;;;5081499;28;20035;-89
2023/09/29 04:49:32;;;;;;;15.57;11.20;;;16.60;99.90;;;;;;5073252;28;20051;-89
2023/09/29 04:51:58;;;;;;;17.35;12.13;;;16.60;99.90;;;;;;5088198;28;20055;-88
2023/09/29 04:54:23;;;;;;;18.13;11.65;;;16.60;99.90;;;;;;5091742;28;20040;-89
2023/09/29 04:56:49;;;;;;;16.30;11.30;;;16.60;99.90;;;;;;5087641;28;20035;-89
2023/09/29 04:59:14;;;;;;;17.23;11.50;;;16.70;99.90;;;;;;5098082;28;20032;-89
2023/09/29 05:01:40;;;;;;;16.60;11.48;;;16.70;99.90;;;;;;5067258;28;20058;-89
2023/09/29 05:04:06;;;;;;;13.90;11.35;;;16.70;99.90;;;;;;5090676;28;20088;-89
2023/09/29 05:06:31;;;;;;;15.07;10.45;;;16.80;99.90;;;;;;5071644;28;20040;-88
2023/09/29 05:08:57;;;;;;;15.43;10.57;;;16.80;99.90;;;;;;5073214;28;20475;-88
2023/09/29 05:11:24;;;;;;;11.98;10.02;;;16.80;99.90;;;;;;5095365;28;20032;-88
2023/09/29 05:13:55;;;;;;;13.85;10.30;;;16.80;99.90;;;;;;5086761;28;20039;-88
2023/09/29 05:16:21;;;;;;;12.63;9.57;;;16.80;99.90;;;;;;5074480;28;20042;-88
2023/09/29 05:18:48;;;;;;;12.15;9.63;;;16.90;99.90;;;;;;5063717;28;20047;-88
2023/09/29 05:21:14;;;;;;;13.25;10.05;;;16.90;99.90;;;;;;5075142;28;20440;-89
2023/09/29 05:23:42;;;;;;;14.02;9.15;;;16.90;99.90;;;;;;5085655;28;20149;-88
2023/09/29 05:26:07;;;;;;;12.50;9.63;;;16.90;99.90;;;;;;5075274;28;20199;-88
2023/09/29 05:28:38;;;;;;;14.57;9.93;;;16.90;99.90;;;;;;5084186;28;20047;-88
2023/09/29 05:31:04;;;;;;;15.90;10.05;;;16.90;99.90;;;;;;5081610;28;20114;-88
2023/09/29 05:33:30;;;;;;;10.88;9.13;;;16.90;99.90;;;;;;5057807;28;20036;-88
2023/09/29 05:35:56;;;;;;;11.80;9.50;;;16.90;99.90;;;;;;5088679;28;20036;-88
2023/09/29 05:38:21;;;;;;;12.02;8.98;;;16.90;99.90;;;;;;5075983;28;20059;-89
2023/09/29 05:40:47;;;;;;;13.77;9.93;;;16.90;99.90;;;;;;5093617;28;20039;-89
2023/09/29 05:43:13;;;;;;;16.20;9.80;;;16.90;99.90;;;;;;5072541;28;20032;-89
2023/09/29 05:45:48;;;;;;;11.15;8.80;;;16.90;99.90;;;;;;5085692;28;20079;-89
2023/09/29 05:48:14;;;;;;;9.77;8.63;;;16.90;99.90;;;;;;5090492;28;20440;-89
2023/09/29 05:50:40;;;;;;;14.30;9.38;;;16.90;99.90;;;;;;5062344;28;20037;-89
2023/09/29 05:53:06;;;;;;;11.27;8.63;;;16.90;99.90;;;;;;5091700;28;20707;-89
2023/09/29 05:55:32;;;;;;;13.38;8.90;;;16.90;99.90;;;;;;5083880;28;20051;-89
2023/09/29 05:57:58;;;;;;;12.23;8.38;;;16.90;99.90;;;;;;5073493;28;20040;-88
2023/09/29 06:00:25;;;;;;;11.13;7.57;;;17.00;99.90;;;;;;5072320;28;20050;-89
2023/09/29 06:02:51;;;;;;;11.02;8.15;;;16.90;99.90;;;;;;5073334;28;20048;-89
2023/09/29 06:05:17;;;;;;;12.27;7.57;;;16.90;99.90;;;;;;5078343;28;20112;-89
2023/09/29 06:07:45;;;;;;;12.90;7.93;;;16.90;99.90;;;;;;5071950;28;20039;-89
2023/09/29 06:10:10;;;;;;;10.23;7.47;;;16.90;99.90;;;;;;5072915;28;20085;-89
2023/09/29 06:12:37;;;;;;;11.38;7.53;;;17.00;99.90;;;;;;5070176;28;20035;-79
2023/09/29 06:15:03;;;;;;;12.05;7.82;;;17.00;99.90;;;;;;5085240;28;20443;-82
2023/09/29 06:17:30;;;;;;;10.35;8.05;;;17.00;99.90;;;;;;5087971;28;20048;-79
2023/09/29 06:19:55;;;;;;;10.70;7.57;;;17.00;99.90;;;;;;5083243;28;20119;-83
2023/09/29 06:22:21;;;;;;;11.35;7.32;;;17.00;99.90;;;;;;5095077;28;20488;-89
2023/09/29 06:24:47;;;;;;;12.20;6.60;;;17.00;99.90;;;;;;5089170;28;20080;-89
2023/09/29 06:27:13;;;;;;;10.38;6.90;;;17.10;99.90;;;;;;5069217;28;20113;-88
2023/09/29 06:29:46;;;;;;;11.52;7.32;;;17.10;99.90;;;;;;5081675;28;20131;-89
2023/09/29 06:32:12;;;;;;;;;;;17.10;99.90;;;;;;5088666;28;20036;-89
2023/09/29 06:34:37;;;;;;;10.77;6.32;;;17.10;99.90;;;;;;5089048;28;19920;-88
2023/09/29 06:37:03;;;;;;;9.00;6.60;;;17.20;99.90;;;;;;5071602;28;20615;-89
2023/09/29 06:39:30;;;;;;;11.18;6.57;;;17.20;99.90;;;;;;5072818;28;20130;-89
2023/09/29 06:41:56;;;;;;;11.55;6.50;;;17.20;99.90;;;;;;5077646;28;20123;-89
2023/09/29 06:44:22;;;;;;;11.43;6.47;;;17.20;99.90;;;;;;5074323;28;20119;-89
2023/09/29 06:46:51;;;;;;;8.50;5.90;;;17.30;99.90;;;;;;5087406;28;20653;-89
2023/09/29 06:49:17;;;;;;;11.63;5.93;;;17.30;99.90;;;;;;5093718;28;20032;-89
2023/09/29 06:51:42;;;;;;;8.10;6.45;;;17.40;99.90;;;;;;5068795;28;20178;-89
2023/09/29 06:54:08;;;;;;;8.15;6.38;;;17.30;99.90;;;;;;5075806;28;20048;-89
2023/09/29 06:56:33;;;;;;;9.30;5.80;;;17.30;99.90;;;;;;5067230;28;20130;-89
2023/09/29 06:58:59;;;;;;;9.98;5.97;;;17.40;99.90;;;;;;5076969;28;20036;-89
2023/09/29 07:01:26;;;;;;;7.72;5.60;;;17.30;99.90;;;;;;5093413;28;20039;-89
2023/09/29 07:03:52;;;;;;;8.20;5.20;;;17.30;99.90;;;;;;5071240;28;20108;-89
2023/09/29 07:06:18;;;;;;;7.95;5.15;;;17.30;99.90;;;;;;5091837;28;20509;-89
2023/09/29 07:08:44;;;;;;;6.90;5.15;;;17.30;99.90;;;;;;5068698;28;20043;-89
2023/09/29 07:11:09;;;;;;;8.50;5.07;;;17.30;99.90;;;;;;5091688;28;20028;-89
2023/09/29 07:13:35;;;;;;;7.40;5.03;;;17.30;99.90;;;;;;5067567;28;20044;-89
2023/09/29 07:16:02;;;;;;;7.65;4.90;;;17.40;99.90;;;;;;5094661;28;20039;-89
2023/09/29 07:18:28;;;;;;;8.05;5.63;;;17.40;99.90;;;;;;5074077;28;20075;-89
2023/09/29 07:20:53;;;;;;;7.20;4.80;;;17.40;99.90;;;;;;5076659;28;20063;-89
2023/09/29 07:23:21;;;;;;;5.90;4.15;;;17.50;99.90;;;;;;5077210;28;20043;-89
2023/09/29 07:25:46;;;;;;;8.68;4.95;;;17.60;99.90;;;;;;5071005;28;20083;-89
2023/09/29 07:28:14;;;;;;;6.40;4.32;;;17.70;99.90;;;;;;5074066;28;20071;-89
2023/09/29 07:30:47;;;;;;;8.60;4.50;;;17.80;99.90;;;;;;5082949;28;20533;-89
2023/09/29 07:33:13;;;;;;;8.07;4.65;;;17.90;99.90;;;;;;5073743;28;20040;-89
2023/09/29 07:35:39;;;;;;;8.60;4.75;;;17.90;99.90;;;;;;5070579;28;20048;-90
2023/09/29 07:38:06;;;;;;;7.90;4.72;;;18.00;99.90;;;;;;5090103;28;20071;-89
2023/09/29 07:40:35;;;;;;;5.80;4.72;;;18.00;99.90;;;;;;5082655;28;20402;-88
2023/09/29 07:43:01;;;;;;;6.45;4.78;;;18.00;99.90;;;;;;5090743;28;20081;-89
2023/09/29 07:45:27;;;;;;;7.38;4.60;;;18.00;99.90;;;;;;5094774;28;20040;-89
2023/09/29 07:47:53;;;;;;;7.03;4.82;;;18.10;99.90;;;;;;5068189;28;20659;-88
2023/09/29 07:50:19;;;;;;;6.13;4.32;;;18.20;99.90;;;;;;5089544;28;20772;-90
2023/09/29 07:52:45;;;;;;;7.30;5.05;;;18.30;99.90;;;;;;5084334;28;20046;-89
2023/09/29 07:55:11;;;;;;;6.07;4.78;;;18.40;99.90;;;;;;5073581;28;20032;-89
2023/09/29 07:57:37;;;;;;;6.90;4.40;;;18.50;99.90;;;;;;5083354;28;20044;-89
2023/09/29 08:00:08;;;;;;;6.15;4.88;;;18.60;99.90;;;;;;5073931;28;20039;-89
2023/09/29 08:02:34;;;;;;;7.22;5.22;;;18.70;99.90;;;;;;5073511;28;20077;-90
2023/09/29 08:05:00;;;;;;;5.38;4.38;;;18.80;99.90;;;;;;5092058;28;20101;-89
2023/09/29 08:07:27;;;;;;;6.65;4.82;;;18.80;99.90;;;;;;5072190;28;20040;-89
2023/09/29 08:09:53;;;;;;;4.90;4.40;;;18.90;99.90;;;;;;5068768;28;20047;-88
2023/09/29 08:12:19;;;;;;;4.82;4.32;;;19.00;99.90;;;;;;5073091;28;20206;-90
2023/09/29 08:14:45;;;;;;;6.80;4.53;;;19.10;99.90;;;;;;5067329;28;20579;-90
2023/09/29 08:17:11;;;;;;;9.98;4.63;;;19.20;99.90;;;;;;5076376;28;20059;-89
2023/09/29 08:19:37;;;;;;;5.25;4.60;;;19.20;99.90;;;;;;5068471;28;20040;-89
2023/09/29 08:22:02;;;;;;;9.23;4.35;;;19.40;99.90;;;;;;5072604;28;20040;-89
2023/09/29 08:24:30;;;;;;;7.35;4.15;;;19.50;99.90;;;;;;5089604;28;20036;-90
2023/09/29 08:26:56;;;;;;;7.88;4.20;;;19.80;99.90;;;;;;5069455;28;20115;-89
2023/09/29 08:29:22;;;;;;;4.57;4.03;;;19.90;99.90;;;;;;5074468;28;20032;-90
2023/09/29 08:31:48;;;;;;;8.13;4.70;;;20.00;99.90;;;;;;5085939;28;20047;-89
2023/09/29 08:34:13;;;;;;;5.75;4.03;;;20.10;99.90;;;;;;5085971;28;20075;-89
2023/09/29 08:36:39;;;;;;;4.32;3.92;;;20.10;99.90;;;;;;5066319;28;20122;-88
2023/09/29 08:39:04;;;;;;;6.10;4.20;;;20.20;99.90;;;;;;5075602;28;20036;-89
2023/09/29 08:41:32;;;;;;;6.25;3.95;;;20.40;99.90;;;;;;5094952;28;20329;-89
2023/09/29 08:44:00;;;;;;;5.10;4.25;;;20.50;99.90;;;;;;5089161;28;20127;-89
2023/09/29 08:46:26;;;;;;;4.68;3.60;;;20.60;99.90;;;;;;5093147;28;20051;-89
2023/09/29 08:48:54;;;;;;;4.85;3.95;;;20.80;99.90;;;;;;5070459;28;20036;-89
2023/09/29 08:51:20;;;;;;;3.95;3.60;;;20.90;99.90;;;;;;5072657;28;20044;-88
2023/09/29 08:53:50;;;;;;;6.38;4.22;;;21.00;99.90;;;;;;5084156;28;20088;-89
2023/09/29 08:56:16;;;;;;;5.50;3.67;;;21.10;99.90;;;;;;5072411;28;20080;-89
2023/09/29 08:58:42;;;;;;;5.72;3.70;;;21.30;99.90;;;;;;5086250;28;20035;-90
2023/09/29 09:01:09;;;;;;;5.22;3.83;;;21.60;99.90;;;;;;5091708;28;20046;-90
2023/09/29 09:03:35;;;;;;;7.63;3.60;;;21.70;99.90;;;;;;5071436;28;20063;-89
2023/09/29 09:06:01;;;;;;;3.80;3.40;;;21.70;99.90;;;;;;5084528;28;20129;-90
2023/09/29 09:08:27;;;;;;;5.40;3.38;;;21.60;99.90;;;;;;5078131;28;20036;-90
2023/09/29 09:11:01;;;;;;;4.82;3.85;;;21.70;99.90;;;;;;5083626;28;20127;-89
2023/09/29 09:13:27;;;;;;;4.80;3.70;;;22.00;99.90;;;;;;5072719;28;20043;-90
2023/09/29 09:16:00;;;;;;;6.65;3.90;;;22.10;99.90;;;;;;5067894;28;20331;-90
2023/09/29 09:18:29;;;;;;;4.45;3.72;;;22.10;99.90;;;;;;5091088;28;20556;-90
2023/09/29 09:20:57;;;;;;;5.43;3.42;;;22.10;99.90;;;;;;5093311;28;20117;-89
2023/09/29 09:23:23;;;;;;;4.07;3.55;;;22.00;99.90;;;;;;5095962;28;20462;-89
2023/09/29 09:25:49;;;;;;;4.50;3.50;;;22.20;99.90;;;;;;5083975;28;20093;-90
2023/09/29 09:28:19;;;;;;;5.65;3.80;;;22.20;99.90;;;;;;5089977;28;20032;-89
2023/09/29 09:30:59;;;;;;;6.78;3.47;;;22.10;99.90;;;;;;5083833;28;20494;-89
2023/09/29 09:33:27;;;;;;;5.00;4.13;;;22.10;99.90;;;;;;5091330;28;20068;-90
2023/09/29 09:36:06;;;;;;;5.35;3.58;;;22.00;99.90;;;;;;5063949;28;20467;-90
2023/09/29 09:38:35;;;;;;;4.75;3.72;;;22.00;99.90;;;;;;5073857;28;20067;-90
2023/09/29 09:41:01;;;;;;;7.55;3.70;;;22.00;99.90;;;;;;5072071;28;20060;-90
2023/09/29 09:43:29;;;;;;;6.35;3.17;;;21.90;99.90;;;;;;5083327;28;20067;-89
2023/09/29 09:46:04;;;;;;;6.85;3.45;;;21.90;99.90;;;;;;5087261;28;20048;-89
2023/09/29 09:49:09;;;;;;;4.63;3.50;;;21.80;99.90;;;;;;5064305;28;20165;-89
2023/09/29 09:51:36;;;;;;;4.35;3.30;;;21.80;99.90;;;;;;5068297;28;20165;-89
2023/09/29 09:54:03;;;;;;;5.60;3.50;;;21.90;99.90;;;;;;5093043;28;20552;-89
2023/09/29 09:56:46;;;;;;;8.02;3.67;;;22.00;99.90;;;;;;5072824;28;20044;-89
2023/09/29 09:59:14;;;;;;;4.33;3.17;;;22.10;99.90;;;;;;5067367;28;20413;-89
2023/09/29 10:01:40;;;;;;;3.67;3.20;;;22.00;99.90;;;;;;5061784;28;20133;-89
2023/09/29 10:04:07;;;;;;;4.32;3.13;;;21.90;99.90;;;;;;5071648;28;20063;-89
2023/09/29 10:06:34;;;;;;;4.70;3.20;;;21.80;99.90;;;;;;5082643;28;20529;-88
2023/09/29 10:09:00;;;;;;;6.57;3.15;;;21.70;99.90;;;;;;5073052;28;20122;-89
2023/09/29 10:11:26;;;;;;;6.07;3.33;;;21.70;99.90;;;;;;5066367;28;20052;-89
2023/09/29 10:14:02;;;;;;;6.32;3.38;;;21.60;99.90;;;;;;5069113;28;20430;-89
2023/09/29 10:16:28;;;;;;;5.32;3.60;;;21.60;99.90;;;;;;5096076;28;20067;-89
2023/09/29 10:19:00;;;;;;;4.63;3.08;;;21.70;99.90;;;;;;5073033;28;20263;-89
2023/09/29 10:21:33;;;;;;;6.70;3.90;;;21.70;99.90;;;;;;5078558;28;20117;-89
2023/09/29 10:24:00;;;;;;;4.03;3.40;;;21.70;99.90;;;;;;5073371;28;20718;-89
2023/09/29 10:26:26;;;;;;;5.95;3.50;;;21.80;99.90;;;;;;5093753;28;20036;-89
2023/09/29 10:29:00;;;;;;;4.15;3.45;;;21.70;99.90;;;;;;5071296;28;20032;-89
2023/09/29 10:31:28;;;;;;;5.18;3.55;;;21.70;99.90;;;;;;5069031;28;20166;-89
2023/09/29 10:33:57;;;;;;;5.03;3.47;;;21.60;99.90;;;;;;5086901;28;20044;-89
2023/09/29 10:36:25;;;;;;;5.50;3.33;;;21.50;99.90;;;;;;5077311;28;20032;-89
2023/09/29 10:38:53;;;;;;;4.13;3.17;;;21.50;99.90;;;;;;5070548;28;20059;-89
2023/09/29 10:41:19;;;;;;;4.68;3.50;;;21.50;99.90;;;;;;5094178;28;20098;-89
2023/09/29 10:43:49;;;;;;;4.82;3.58;;;21.40;99.90;;;;;;5087605;28;20043;-90
2023/09/29 10:46:18;;;;;;;8.07;4.10;;;21.30;99.90;;;;;;5075162;28;20131;-88
2023/09/29 10:48:51;;;;;;;5.90;3.75;;;21.30;99.90;;;;;;5075940;28;20035;-88
2023/09/29 10:51:21;;;;;;;;;;;21.20;99.90;;;;;;5075165;28;20036;-89
2023/09/29 10:53:47;;;;;;;5.75;3.92;;;21.20;99.90;;;;;;5097696;27;20003;-89
2023/09/29 10:56:20;;;;;;;5.90;4.32;;;21.30;99.90;;;;;;5095635;28;20122;-88
2023/09/29 10:58:46;;;;;;;6.32;3.97;;;21.30;99.90;;;;;;5085142;28;20067;-90
2023/09/29 11:01:25;;;;;;;4.60;4.15;;;21.40;99.90;;;;;;5078849;28;20667;-89
2023/09/29 11:03:51;;;;;;;7.97;4.30;;;21.50;99.90;;;;;;5112081;27;20593;-89
2023/09/29 11:06:18;;;;;;;6.43;3.72;;;21.70;99.90;;;;;;5066427;28;20061;-89
2023/09/29 11:08:52;;;;;;;6.28;4.00;;;21.70;99.90;;;;;;5069706;28;20062;-89
2023/09/29 11:11:17;;;;;;;6.18;4.10;;;21.70;99.90;;;;;;5086960;28;20565;-88
2023/09/29 11:13:43;;;;;;;4.90;3.67;;;21.90;99.90;;;;;;5088904;28;20045;-89
2023/09/29 11:16:19;;;;;;;5.90;3.45;;;22.10;99.90;;;;;;5100741;28;20042;-89
2023/09/29 11:18:45;;;;;;;4.80;3.63;;;22.10;99.90;;;;;;5090964;28;20494;-88
2023/09/29 11:21:12;;;;;;;5.40;3.50;;;22.30;99.90;;;;;;5074548;28;20040;-89
2023/09/29 11:23:46;;;;;;;7.55;4.07;;;22.30;99.90;;;;;;5085028;28;20032;-89
2023/09/29 11:26:13;;;;;;;6.45;4.00;;;22.30;99.90;;;;;;5096294;28;20116;-90
2023/09/29 11:28:48;;;;;;;6.32;4.35;;;22.30;99.90;;;;;;5086059;28;20051;-89
2023/09/29 11:31:15;;;;;;;4.75;3.67;;;22.30;99.90;;;;;;5091417;28;20039;-89
2023/09/29 11:33:45;;;;;;;9.40;4.00;;;22.20;99.90;;;;;;5068407;28;20162;-89
2023/09/29 11:36:10;;;;;;;5.07;4.47;;;22.10;99.90;;;;;;5075967;28;20085;-90
2023/09/29 11:38:36;;;;;;;5.65;4.28;;;22.10;99.90;;;;;;5066524;28;20132;-89
2023/09/29 11:41:01;;;;;;;4.70;3.88;;;22.00;99.90;;;;;;5091087;28;20047;-89
2023/09/29 11:43:27;;;;;;;5.70;4.40;;;22.00;99.90;;;;;;5076874;28;20044;-89
2023/09/29 11:45:53;;;;;;;7.15;3.53;;;22.00;99.90;;;;;;5087285;28;20047;-89
2023/09/29 11:48:18;;;;;;;5.45;3.83;;;21.90;99.90;;;;;;5093621;28;20417;-88
2023/09/29 11:50:44;;;;;;;4.30;3.90;;;21.90;99.90;;;;;;5093298;28;20035;-89
2023/09/29 11:53:09;;;;;;;4.10;3.72;;;22.30;99.90;;;;;;5086428;28;20071;-89
2023/09/29 11:55:36;;;;;;;6.28;3.95;;;22.40;99.90;;;;;;5069318;28;20044;-89
2023/09/29 11:58:03;;;;;;;7.28;4.07;;;22.70;99.90;;;;;;5093301;28;20036;-88
2023/09/29 12:00:29;;;;;;;6.95;3.78;;;22.80;99.90;;;;;;5078965;28;20046;-90
2023/09/29 12:02:55;;;;;;;7.50;4.60;;;22.80;99.90;;;;;;5087984;28;20039;-89
2023/09/29 12:05:21;;;;;;;5.63;3.70;;;22.70;99.90;;;;;;5076763;28;20031;-89
2023/09/29 12:07:53;;;;;;;5.78;4.70;;;22.70;99.90;;;;;;5074268;28;20089;-89
2023/09/29 12:10:20;;;;;;;5.00;4.50;;;22.60;99.90;;;;;;5095129;28;20043;-89
2023/09/29 12:12:46;;;;;;;6.53;4.32;;;22.40;99.90;;;;;;5067921;28;20055;-89
2023/09/29 12:15:14;;;;;;;6.55;4.47;;;22.20;99.90;;;;;;5074877;28;20036;-89
2023/09/29 12:17:40;;;;;;;7.57;4.38;;;22.10;99.90;;;;;;5084327;28;20039;-88
2023/09/29 12:20:08;;;;;;;6.32;4.80;;;22.00;99.90;;;;;;5086422;28;20080;-88
2023/09/29 12:22:34;;;;;;;8.90;4.85;;;21.90;99.90;;;;;;5082015;28;20047;-88
2023/09/29 12:25:00;;;;;;;5.10;4.60;;;21.90;99.90;;;;;;5090356;28;20047;-88
2023/09/29 12:27:25;;;;;;;7.15;4.60;;;21.90;99.90;;;;;;5090172;28;20032;-89
2023/09/29 12:29:51;;;;;;;9.23;4.47;;;21.80;99.90;;;;;;5083349;28;20409;-88
2023/09/29 12:32:17;;;;;;;4.88;4.32;;;21.80;99.90;;;;;;5083733;28;20036;-89
2023/09/29 12:34:43;;;;;;;5.70;4.80;;;21.80;99.90;;;;;;5065573;28;20039;-89
2023/09/29 12:37:09;;;;;;;6.90;4.80;;;21.80;99.90;;;;;;5092890;28;20576;-89
2023/09/29 12:39:34;;;;;;;7.00;4.97;;;21.80;99.90;;;;;;5084990;28;20036;-88